Time;durP1;ratioP1;P1;durP2;ratioP2;P2;SDS_P1;SDS_P2;PMS_P1;PMS_P2;Temp;Humidity;BMP_temperature;BMP_pressure;BME280_temperature;BME280_humidity;BME280_pressure;Samples;Min_cycle;Max_cycle;Signal;HPM_P1;HPM_P2
2023/08/10 00:02:22;;;;;;;1.40;1.30;;;20.30;99.90;;;;;;5074477;28;20216;-73
2023/08/10 00:04:49;;;;;;;1.50;1.40;;;20.30;99.90;;;;;;5078475;28;20708;-73
2023/08/10 00:07:17;;;;;;;1.25;1.15;;;20.30;99.90;;;;;;5057449;28;20225;-72
2023/08/10 00:09:44;;;;;;;1.10;1.10;;;20.30;99.90;;;;;;5055981;28;20233;-71
2023/08/10 00:12:11;;;;;;;1.23;1.13;;;20.30;99.90;;;;;;5055890;28;20259;-73
2023/08/10 00:14:38;;;;;;;1.20;1.10;;;20.30;99.90;;;;;;5055115;28;20313;-72
2023/08/10 00:17:05;;;;;;;1.45;1.35;;;20.30;99.90;;;;;;5053674;28;20203;-72
2023/08/10 00:19:32;;;;;;;1.55;1.17;;;20.30;99.90;;;;;;5054619;28;20740;-72
2023/08/10 00:21:59;;;;;;;1.38;1.27;;;20.30;99.90;;;;;;5058041;28;20523;-71
2023/08/10 00:24:27;;;;;;;1.33;1.23;;;20.30;99.90;;;;;;5057224;28;20222;-72
2023/08/10 00:26:54;;;;;;;1.30;1.20;;;20.20;99.90;;;;;;5054936;28;20256;-72
2023/08/10 00:29:21;;;;;;;1.48;1.30;;;20.20;99.90;;;;;;5060747;28;20214;-73
2023/08/10 00:31:48;;;;;;;1.00;1.00;;;20.20;99.90;;;;;;5059355;28;20198;-71
2023/08/10 00:34:15;;;;;;;1.17;1.08;;;20.20;99.90;;;;;;5057894;28;20245;-73
2023/08/10 00:36:42;;;;;;;1.52;1.42;;;20.20;99.90;;;;;;5058094;28;20248;-71
2023/08/10 00:39:09;;;;;;;1.17;1.10;;;20.20;99.90;;;;;;5058663;28;20205;-71
2023/08/10 00:41:38;;;;;;;1.20;1.20;;;20.10;99.90;;;;;;5058097;28;20259;-70
2023/08/10 00:44:06;;;;;;;0.90;0.90;;;20.10;99.90;;;;;;5057863;28;20227;-73
2023/08/10 00:46:33;;;;;;;1.27;1.20;;;20.10;99.90;;;;;;5055956;28;20962;-73
2023/08/10 00:49:00;;;;;;;1.10;1.10;;;20.10;99.90;;;;;;5060394;28;20198;-71
2023/08/10 00:51:27;;;;;;;1.40;1.30;;;20.10;99.90;;;;;;5091064;28;20216;-77
2023/08/10 00:53:55;;;;;;;1.33;1.23;;;20.10;99.90;;;;;;5092934;28;20222;-73
2023/08/10 00:56:22;;;;;;;1.38;1.27;;;20.10;99.90;;;;;;5086396;28;20174;-73
2023/08/10 00:58:51;;;;;;;1.35;1.17;;;20.10;99.90;;;;;;5058959;28;20198;-71
2023/08/10 01:01:18;;;;;;;1.15;1.10;;;20.10;99.90;;;;;;5058720;28;20206;-72
2023/08/10 01:03:45;;;;;;;1.42;1.33;;;20.10;99.90;;;;;;5065571;28;20217;-71
2023/08/10 01:06:20;;;;;;;1.20;1.20;;;20.10;99.90;;;;;;5059727;28;20312;-72
2023/08/10 01:08:55;;;;;;;1.30;1.20;;;20.10;99.90;;;;;;5062546;28;20788;-73
2023/08/10 01:11:29;;;;;;;1.40;1.30;;;20.10;99.90;;;;;;5062165;28;20266;-72
2023/08/10 01:14:04;;;;;;;1.20;1.15;;;20.10;99.90;;;;;;5061639;28;20226;-72
2023/08/10 01:16:33;;;;;;;0.98;0.98;;;20.10;99.90;;;;;;5063659;28;20687;-72
2023/08/10 01:19:01;;;;;;;1.13;1.13;;;20.00;99.90;;;;;;5060807;28;20285;-71
2023/08/10 01:21:50;;;;;;;1.05;1.05;;;20.00;99.90;;;;;;5061239;28;20202;-73
2023/08/10 01:24:22;;;;;;;1.00;1.00;;;19.90;99.90;;;;;;5060764;28;20256;-72
2023/08/10 01:26:53;;;;;;;1.17;1.08;;;19.90;99.90;;;;;;5059956;28;20222;-71
2023/08/10 01:29:21;;;;;;;1.38;1.27;;;19.90;99.90;;;;;;5060447;28;20203;-72
2023/08/10 01:31:48;;;;;;;1.40;1.30;;;19.90;99.90;;;;;;5063274;28;20202;-72
2023/08/10 01:34:15;;;;;;;1.30;1.20;;;19.90;99.90;;;;;;5061531;28;20218;-71
2023/08/10 01:36:42;;;;;;;2.67;1.40;;;19.90;99.90;;;;;;5060240;28;20256;-71
2023/08/10 01:39:09;;;;;;;1.10;1.10;;;19.90;99.90;;;;;;5058305;28;20323;-72
2023/08/10 01:41:36;;;;;;;1.38;1.27;;;19.90;99.90;;;;;;5060500;28;20213;-72
2023/08/10 01:44:04;;;;;;;1.60;1.50;;;19.90;99.90;;;;;;5061153;28;20223;-71
2023/08/10 01:46:36;;;;;;;1.35;1.25;;;19.90;99.90;;;;;;5062226;28;20210;-72
2023/08/10 01:49:07;;;;;;;1.42;1.33;;;19.90;99.90;;;;;;5060604;28;20209;-72
2023/08/10 01:51:37;;;;;;;1.48;1.38;;;19.90;99.90;;;;;;5058222;28;20225;-72
2023/08/10 01:54:06;;;;;;;1.30;1.02;;;19.90;99.90;;;;;;5062776;28;20279;-73
2023/08/10 01:56:34;;;;;;;1.42;1.38;;;19.90;99.90;;;;;;5059662;28;20276;-72
2023/08/10 01:59:01;;;;;;;1.40;1.30;;;19.80;99.90;;;;;;5063079;28;20676;-73
2023/08/10 02:01:29;;;;;;;1.10;1.10;;;19.80;99.90;;;;;;5076000;28;20195;-72
2023/08/10 02:03:57;;;;;;;0.95;0.95;;;19.80;99.90;;;;;;5064168;28;20206;-73
2023/08/10 02:06:24;;;;;;;1.30;1.20;;;19.80;99.90;;;;;;5061295;28;20279;-72
2023/08/10 02:08:51;;;;;;;1.00;1.00;;;19.80;99.90;;;;;;5060227;28;20194;-72
2023/08/10 02:11:17;;;;;;;1.15;1.05;;;19.80;99.90;;;;;;5060964;28;20198;-72
2023/08/10 02:13:45;;;;;;;1.00;1.00;;;19.80;99.90;;;;;;5061632;28;20291;-73
2023/08/10 02:16:12;;;;;;;1.40;1.30;;;19.80;99.90;;;;;;5058459;28;20257;-74
2023/08/10 02:18:41;;;;;;;1.05;1.02;;;19.80;99.90;;;;;;5059264;28;20286;-71
2023/08/10 02:21:08;;;;;;;1.58;1.48;;;19.80;99.90;;;;;;5059756;28;20216;-72
2023/08/10 02:23:35;;;;;;;1.42;1.33;;;19.80;99.90;;;;;;5060365;28;20280;-72
2023/08/10 02:26:02;;;;;;;1.30;1.20;;;19.80;99.90;;;;;;5058992;28;20194;-72
2023/08/10 02:28:29;;;;;;;1.63;1.52;;;19.80;99.90;;;;;;5060727;28;20922;-72
2023/08/10 02:30:56;;;;;;;1.42;1.27;;;19.80;99.90;;;;;;5059303;28;20242;-73
2023/08/10 02:33:23;;;;;;;1.30;1.20;;;19.80;99.90;;;;;;5059877;28;20202;-72
2023/08/10 02:35:52;;;;;;;1.40;1.30;;;19.80;99.90;;;;;;5059071;28;20315;-73
2023/08/10 02:38:19;;;;;;;1.10;1.10;;;19.80;99.90;;;;;;5059758;28;20195;-72
2023/08/10 02:40:46;;;;;;;1.55;1.45;;;19.70;99.90;;;;;;5062511;28;20303;-72
2023/08/10 02:43:12;;;;;;;1.38;1.27;;;19.70;99.90;;;;;;5060235;28;20198;-72
2023/08/10 02:45:39;;;;;;;1.40;1.30;;;19.70;99.90;;;;;;5058591;28;20708;-72
2023/08/10 02:48:07;;;;;;;1.10;1.10;;;19.60;99.90;;;;;;5059476;28;20252;-73
2023/08/10 02:50:34;;;;;;;1.20;1.10;;;19.60;99.90;;;;;;5060635;28;20198;-73
2023/08/10 02:53:02;;;;;;;1.38;1.27;;;19.60;99.90;;;;;;5058197;28;20248;-73
2023/08/10 02:55:29;;;;;;;1.20;1.10;;;19.60;99.90;;;;;;5057203;28;20345;-73
2023/08/10 02:57:57;;;;;;;1.27;1.20;;;19.60;99.90;;;;;;5056930;28;21221;-72
2023/08/10 03:00:24;;;;;;;1.27;1.17;;;19.60;99.90;;;;;;5057400;28;20218;-72
2023/08/10 03:02:51;;;;;;;1.30;1.20;;;19.60;99.90;;;;;;5061093;28;20229;-73
2023/08/10 03:05:19;;;;;;;1.30;1.20;;;19.60;99.90;;;;;;5058606;28;20230;-73
2023/08/10 03:07:46;;;;;;;2.30;1.30;;;19.60;99.90;;;;;;5057823;28;20290;-73
2023/08/10 03:10:14;;;;;;;1.67;1.20;;;19.60;99.90;;;;;;5058136;28;20296;-73
2023/08/10 03:12:41;;;;;;;1.42;1.20;;;19.60;99.90;;;;;;5060443;28;20202;-72
2023/08/10 03:15:11;;;;;;;1.08;1.08;;;19.60;99.90;;;;;;5060778;28;20221;-72
2023/08/10 03:17:39;;;;;;;1.10;1.10;;;19.60;99.90;;;;;;5058744;28;20210;-72
2023/08/10 03:20:12;;;;;;;1.40;1.30;;;19.60;99.90;;;;;;5058713;28;20199;-73
2023/08/10 03:22:39;;;;;;;1.50;1.40;;;19.60;99.90;;;;;;5060278;28;20209;-73
2023/08/10 03:25:07;;;;;;;1.40;1.30;;;19.60;99.90;;;;;;5057295;28;20242;-72
2023/08/10 03:27:35;;;;;;;1.15;1.05;;;19.60;99.90;;;;;;5060130;28;20209;-73
2023/08/10 03:30:03;;;;;;;1.50;1.40;;;19.60;99.90;;;;;;5057800;28;20289;-71
2023/08/10 03:32:29;;;;;;;1.23;1.23;;;19.60;99.90;;;;;;5061343;28;20201;-73
2023/08/10 03:34:56;;;;;;;1.30;1.20;;;19.60;99.90;;;;;;5058305;28;20226;-73
2023/08/10 03:37:23;;;;;;;1.30;1.20;;;19.60;99.90;;;;;;5056845;28;20206;-72
2023/08/10 03:39:50;;;;;;;1.50;1.40;;;19.50;99.90;;;;;;5059012;28;20225;-73
2023/08/10 03:42:17;;;;;;;1.00;1.00;;;19.50;99.90;;;;;;5061195;28;20636;-72
2023/08/10 03:44:45;;;;;;;1.10;1.10;;;19.50;99.90;;;;;;5061163;28;20210;-72
2023/08/10 03:47:13;;;;;;;1.45;1.40;;;19.50;99.90;;;;;;5058817;28;20301;-72
2023/08/10 03:49:39;;;;;;;1.40;1.30;;;19.40;99.90;;;;;;5061671;28;20206;-73
2023/08/10 03:52:07;;;;;;;2.67;1.35;;;19.40;99.90;;;;;;5060068;28;20226;-72
2023/08/10 03:54:33;;;;;;;1.20;1.20;;;19.50;99.90;;;;;;5059861;28;20941;-73
2023/08/10 03:57:00;;;;;;;1.33;1.23;;;19.40;99.90;;;;;;5063308;28;20195;-75
2023/08/10 03:59:27;;;;;;;1.30;1.20;;;19.40;99.90;;;;;;5088493;28;20178;-75
2023/08/10 04:01:55;;;;;;;1.60;1.50;;;19.40;99.90;;;;;;5058136;28;20226;-72
2023/08/10 04:04:23;;;;;;;1.40;1.30;;;19.40;99.90;;;;;;5058225;28;20252;-72
2023/08/10 04:06:50;;;;;;;1.20;1.10;;;19.30;99.90;;;;;;5059750;28;20236;-75
2023/08/10 04:09:17;;;;;;;1.40;1.30;;;19.30;99.90;;;;;;5057352;28;20247;-72
2023/08/10 04:11:44;;;;;;;1.42;1.33;;;19.20;99.90;;;;;;5057206;28;20202;-72
2023/08/10 04:14:11;;;;;;;1.77;1.30;;;19.20;99.90;;;;;;5058207;28;20257;-72
2023/08/10 04:16:38;;;;;;;1.30;1.30;;;19.20;99.90;;;;;;5057653;28;20252;-73
2023/08/10 04:19:06;;;;;;;1.30;1.20;;;19.30;99.90;;;;;;5059016;28;20263;-73
2023/08/10 04:21:33;;;;;;;1.17;1.17;;;19.20;99.90;;;;;;5058496;28;20283;-73
2023/08/10 04:24:00;;;;;;;1.38;1.27;;;19.20;99.90;;;;;;5059366;28;20301;-73
2023/08/10 04:26:27;;;;;;;1.20;1.20;;;19.20;99.90;;;;;;5064418;28;20198;-72
2023/08/10 04:28:54;;;;;;;1.35;1.25;;;19.20;99.90;;;;;;5063572;28;20293;-72
2023/08/10 04:31:21;;;;;;;1.13;1.13;;;19.20;99.90;;;;;;5066340;28;20226;-71
2023/08/10 04:33:48;;;;;;;1.05;1.05;;;19.20;99.90;;;;;;5087270;28;20210;-74
2023/08/10 04:36:16;;;;;;;1.10;1.00;;;19.20;99.90;;;;;;5095768;28;20199;-73
2023/08/10 04:38:43;;;;;;;1.40;1.30;;;19.30;99.90;;;;;;5088340;28;20199;-73
2023/08/10 04:41:10;;;;;;;1.02;1.02;;;19.20;99.90;;;;;;5065914;28;20251;-72
2023/08/10 04:43:37;;;;;;;1.30;1.20;;;19.30;99.90;;;;;;5066387;28;20580;-72
2023/08/10 04:46:03;;;;;;;1.40;1.30;;;19.30;99.90;;;;;;5059467;28;20197;-72
2023/08/10 04:48:30;;;;;;;1.30;1.20;;;19.30;99.90;;;;;;5062387;28;20222;-73
2023/08/10 04:50:57;;;;;;;1.20;1.20;;;19.30;99.90;;;;;;5059104;28;20202;-72
2023/08/10 04:53:26;;;;;;;1.40;1.30;;;19.30;99.90;;;;;;5064156;28;20244;-73
2023/08/10 04:55:53;;;;;;;1.63;1.35;;;19.30;99.90;;;;;;5062263;28;20800;-72
2023/08/10 04:58:20;;;;;;;1.40;1.38;;;19.40;99.90;;;;;;5064188;28;20252;-72
2023/08/10 05:00:47;;;;;;;1.30;1.20;;;19.40;99.90;;;;;;5059170;28;20198;-72
2023/08/10 05:03:14;;;;;;;1.30;1.20;;;19.50;99.90;;;;;;5062441;28;20234;-72
2023/08/10 05:05:41;;;;;;;1.30;1.20;;;19.50;99.90;;;;;;5066032;28;20944;-73
2023/08/10 05:08:09;;;;;;;2.58;1.50;;;19.50;99.90;;;;;;5060955;28;20194;-73
2023/08/10 05:10:37;;;;;;;1.60;1.50;;;19.50;99.90;;;;;;5062572;28;20287;-72
2023/08/10 05:13:04;;;;;;;1.30;1.20;;;19.50;99.90;;;;;;5058813;28;20241;-72
2023/08/10 05:15:31;;;;;;;1.20;1.10;;;19.40;99.90;;;;;;5060326;28;20607;-72
2023/08/10 05:17:59;;;;;;;1.50;1.40;;;19.50;99.90;;;;;;5059661;28;20253;-72
2023/08/10 05:20:26;;;;;;;1.50;1.40;;;19.40;99.90;;;;;;5063493;28;20245;-73
2023/08/10 05:22:53;;;;;;;1.48;1.38;;;19.50;99.90;;;;;;5065519;28;20234;-72
2023/08/10 05:25:20;;;;;;;1.48;1.38;;;19.50;99.90;;;;;;5066400;28;20568;-73
2023/08/10 05:27:48;;;;;;;1.60;1.50;;;19.60;99.90;;;;;;5070986;28;20425;-72
2023/08/10 05:30:15;;;;;;;1.60;1.50;;;19.70;99.90;;;;;;5069667;28;20199;-73
2023/08/10 05:32:44;;;;;;;1.50;1.40;;;19.70;99.90;;;;;;5062001;28;20201;-73
2023/08/10 05:35:12;;;;;;;1.40;1.30;;;19.80;99.90;;;;;;5060046;28;20253;-75
2023/08/10 05:37:39;;;;;;;1.35;1.25;;;19.90;99.90;;;;;;5060200;28;20198;-74
2023/08/10 05:40:09;;;;;;;1.42;1.33;;;19.80;99.90;;;;;;5061964;28;20775;-73
2023/08/10 05:42:36;;;;;;;1.60;1.50;;;19.90;99.90;;;;;;5057992;28;20237;-73
2023/08/10 05:45:06;;;;;;;1.58;1.48;;;19.80;99.90;;;;;;5062074;28;20310;-74
2023/08/10 05:47:33;;;;;;;1.50;1.40;;;19.80;99.90;;;;;;5063980;28;20863;-74
2023/08/10 05:50:00;;;;;;;1.40;1.30;;;19.80;99.90;;;;;;5062312;28;20225;-73
2023/08/10 05:52:27;;;;;;;2.13;1.45;;;19.80;99.90;;;;;;5060308;28;20209;-73
2023/08/10 05:54:54;;;;;;;1.40;1.30;;;19.90;99.90;;;;;;5069301;28;20309;-81
2023/08/10 05:57:21;;;;;;;1.50;1.40;;;19.90;99.90;;;;;;5088486;28;20198;-73
2023/08/10 05:59:48;;;;;;;1.40;1.30;;;19.90;99.90;;;;;;5061220;28;20206;-74
2023/08/10 06:02:17;;;;;;;1.40;1.30;;;20.00;99.90;;;;;;5057645;28;20213;-73
2023/08/10 06:04:45;;;;;;;1.40;1.30;;;20.10;99.90;;;;;;5058188;28;20292;-73
2023/08/10 06:07:12;;;;;;;1.42;1.33;;;20.20;99.90;;;;;;5058097;28;20202;-74
2023/08/10 06:09:39;;;;;;;1.45;1.35;;;20.30;99.90;;;;;;5058222;28;20770;-73
2023/08/10 06:12:07;;;;;;;1.48;1.38;;;20.40;99.90;;;;;;5058997;28;20744;-73
2023/08/10 06:14:34;;;;;;;2.00;1.30;;;20.50;99.90;;;;;;5057045;28;20309;-73
2023/08/10 06:17:01;;;;;;;1.63;1.27;;;20.50;99.90;;;;;;5058136;28;20217;-73
2023/08/10 06:19:29;;;;;;;1.58;1.48;;;20.70;99.90;;;;;;5058313;28;20203;-73
2023/08/10 06:21:56;;;;;;;1.40;1.30;;;20.80;99.90;;;;;;5060655;28;20276;-73
2023/08/10 06:24:23;;;;;;;1.83;1.50;;;20.90;99.90;;;;;;5056475;28;20278;-73
2023/08/10 06:26:50;;;;;;;1.60;1.50;;;20.80;99.90;;;;;;5060108;28;20603;-73
2023/08/10 06:29:17;;;;;;;1.40;1.30;;;20.90;99.90;;;;;;5057382;28;20203;-71
2023/08/10 06:31:44;;;;;;;1.70;1.60;;;21.00;99.90;;;;;;5059990;28;20263;-72
2023/08/10 06:34:11;;;;;;;1.55;1.45;;;21.00;99.90;;;;;;5054344;28;20297;-75
2023/08/10 06:36:39;;;;;;;2.55;1.50;;;20.90;99.90;;;;;;5054355;28;20218;-73
2023/08/10 06:39:07;;;;;;;1.67;1.58;;;21.10;99.90;;;;;;5056732;28;20321;-74
2023/08/10 06:41:34;;;;;;;1.50;1.40;;;21.50;99.90;;;;;;5053908;28;20203;-73
2023/08/10 06:44:01;;;;;;;1.58;1.48;;;21.80;99.90;;;;;;5053137;28;20265;-73
2023/08/10 06:46:28;;;;;;;2.63;1.73;;;22.00;99.90;;;;;;5055941;28;20700;-73
2023/08/10 06:48:55;;;;;;;2.00;1.80;;;22.00;99.90;;;;;;5058512;28;20267;-72
2023/08/10 06:51:22;;;;;;;1.70;1.60;;;21.90;99.90;;;;;;5057911;28;20202;-72
2023/08/10 06:53:50;;;;;;;2.00;1.80;;;21.70;99.90;;;;;;5059951;28;20210;-72
2023/08/10 06:56:17;;;;;;;2.58;1.80;;;21.60;99.90;;;;;;5054497;28;20326;-72
2023/08/10 06:58:44;;;;;;;2.60;1.80;;;21.60;99.90;;;;;;5054420;28;20310;-72
2023/08/10 07:01:11;;;;;;;2.10;1.90;;;21.60;99.90;;;;;;5050731;28;20233;-73
2023/08/10 07:03:38;;;;;;;2.08;1.88;;;21.70;99.90;;;;;;5051981;28;20217;-74
2023/08/10 07:06:05;;;;;;;2.45;1.83;;;21.90;99.90;;;;;;5054588;28;20264;-73
2023/08/10 07:08:32;;;;;;;3.22;2.13;;;22.40;99.90;;;;;;5054800;28;20933;-73
2023/08/10 07:11:03;;;;;;;2.00;1.88;;;22.80;99.90;;;;;;5057232;28;20302;-72
2023/08/10 07:13:30;;;;;;;2.10;1.90;;;22.80;99.90;;;;;;5049546;28;20904;-73
2023/08/10 07:15:58;;;;;;;1.85;1.67;;;22.70;99.90;;;;;;5055649;28;20217;-71
2023/08/10 07:18:25;;;;;;;2.10;1.83;;;22.50;99.90;;;;;;5051785;28;20285;-74
2023/08/10 07:20:55;;;;;;;1.73;1.63;;;22.40;99.90;;;;;;5053330;28;20280;-73
2023/08/10 07:23:21;;;;;;;2.15;1.70;;;22.30;99.90;;;;;;5058450;28;20281;-72
2023/08/10 07:25:48;;;;;;;1.80;1.60;;;22.20;99.90;;;;;;5056025;28;20198;-73
2023/08/10 07:28:21;;;;;;;1.73;1.63;;;22.10;99.90;;;;;;5055356;28;20712;-72
2023/08/10 07:30:48;;;;;;;2.42;2.03;;;22.00;99.90;;;;;;5052421;28;20206;-73
2023/08/10 07:33:15;;;;;;;1.80;1.70;;;22.00;99.90;;;;;;5056082;28;20209;-73
2023/08/10 07:35:42;;;;;;;1.95;1.80;;;22.10;99.90;;;;;;5054673;28;20222;-73
2023/08/10 07:38:09;;;;;;;2.78;1.70;;;22.40;99.90;;;;;;5054436;28;20795;-73
2023/08/10 07:40:36;;;;;;;1.90;1.80;;;22.80;99.90;;;;;;5052818;28;20281;-72
2023/08/10 07:43:03;;;;;;;1.63;1.52;;;23.20;99.90;;;;;;5052171;28;20202;-72
2023/08/10 07:45:31;;;;;;;1.77;1.67;;;23.50;99.90;;;;;;5059046;28;20672;-73
2023/08/10 07:47:58;;;;;;;3.03;1.50;;;23.80;99.90;;;;;;5057544;28;20789;-72
2023/08/10 07:50:27;;;;;;;1.90;1.80;;;24.00;99.90;;;;;;5057231;28;20892;-73
2023/08/10 07:52:54;;;;;;;2.45;1.77;;;24.20;99.90;;;;;;5063888;28;20208;-74
2023/08/10 07:55:21;;;;;;;1.55;1.42;;;24.50;99.90;;;;;;5072095;28;20323;-73
2023/08/10 07:57:47;;;;;;;1.60;1.50;;;24.60;99.90;;;;;;5057166;28;20233;-74
2023/08/10 08:00:15;;;;;;;1.70;1.60;;;24.70;99.90;;;;;;5059222;28;20222;-73
2023/08/10 08:02:43;;;;;;;2.22;1.88;;;24.80;99.90;;;;;;5060869;28;20749;-73
2023/08/10 08:05:11;;;;;;;1.83;1.73;;;24.80;99.90;;;;;;5058096;28;20253;-73
2023/08/10 08:07:38;;;;;;;2.15;1.70;;;24.90;99.90;;;;;;5060236;28;20736;-72
2023/08/10 08:10:05;;;;;;;1.55;1.45;;;24.70;99.90;;;;;;5059720;28;20285;-73
2023/08/10 08:12:33;;;;;;;1.83;1.70;;;24.80;99.90;;;;;;5058717;28;20211;-72
2023/08/10 08:15:00;;;;;;;1.63;1.52;;;24.90;99.90;;;;;;5061072;28;20329;-72
2023/08/10 08:17:27;;;;;;;1.80;1.70;;;25.00;99.90;;;;;;5073747;28;20230;-75
2023/08/10 08:19:57;;;;;;;3.15;1.58;;;25.00;99.90;;;;;;5088103;28;20193;-74
2023/08/10 08:22:24;;;;;;;1.80;1.70;;;25.10;99.90;;;;;;5088026;28;20194;-73
2023/08/10 08:24:52;;;;;;;2.00;1.90;;;25.20;99.90;;;;;;5081968;28;20218;-73
2023/08/10 08:27:19;;;;;;;1.90;1.67;;;25.20;99.90;;;;;;5058487;28;20207;-72
2023/08/10 08:29:46;;;;;;;1.60;1.50;;;25.20;99.90;;;;;;5059733;28;20682;-73
2023/08/10 08:32:13;;;;;;;2.97;1.70;;;25.20;99.90;;;;;;5061407;28;20281;-72
2023/08/10 08:34:40;;;;;;;1.95;1.80;;;25.30;99.90;;;;;;5052692;28;20246;-75
2023/08/10 08:37:08;;;;;;;1.83;1.70;;;25.40;99.90;;;;;;5060061;28;20206;-74
2023/08/10 08:39:35;;;;;;;1.70;1.60;;;25.50;99.90;;;;;;5059712;28;20784;-74
2023/08/10 08:42:03;;;;;;;2.67;1.73;;;25.60;99.90;;;;;;5060208;28;20194;-76
2023/08/10 08:44:30;;;;;;;1.65;1.55;;;25.70;99.90;;;;;;5051457;28;20278;-77
2023/08/10 08:46:57;;;;;;;2.40;1.73;;;25.70;99.90;;;;;;5063925;28;20202;-79
2023/08/10 08:49:25;;;;;;;1.48;1.38;;;25.70;99.90;;;;;;5059014;28;20195;-77
2023/08/10 08:51:52;;;;;;;2.15;1.63;;;26.00;99.90;;;;;;5060443;28;20232;-79
2023/08/10 08:54:22;;;;;;;1.90;1.80;;;26.30;99.90;;;;;;5057892;28;20292;-79
2023/08/10 08:56:49;;;;;;;3.38;1.90;;;26.30;99.90;;;;;;5060475;28;20210;-76
2023/08/10 08:59:17;;;;;;;2.35;1.55;;;26.20;99.90;;;;;;5060206;28;20234;-76
2023/08/10 09:01:46;;;;;;;2.08;1.88;;;26.20;99.90;;;;;;5058422;28;20280;-75
2023/08/10 09:04:13;;;;;;;1.42;1.33;;;26.40;99.90;;;;;;5054638;28;20647;-77
2023/08/10 09:06:40;;;;;;;1.60;1.50;;;26.30;99.90;;;;;;5056077;28;20255;-76
2023/08/10 09:09:07;;;;;;;2.42;1.73;;;26.40;99.90;;;;;;5054472;28;20257;-76
2023/08/10 09:11:36;;;;;;;1.90;1.80;;;26.40;99.90;;;;;;5056957;28;20283;-77
2023/08/10 09:14:08;;;;;;;1.85;1.70;;;26.10;99.90;;;;;;5050567;28;20233;-75
2023/08/10 09:16:37;;;;;;;1.92;1.73;;;25.70;99.90;;;;;;5050868;28;20988;-76
2023/08/10 09:19:04;;;;;;;2.00;1.90;;;25.70;99.90;;;;;;5050412;28;20199;-76
2023/08/10 09:21:32;;;;;;;2.05;1.85;;;25.60;99.90;;;;;;5053111;28;20199;-75
2023/08/10 09:23:59;;;;;;;1.70;1.60;;;25.60;99.90;;;;;;5052323;28;20604;-76
2023/08/10 09:26:26;;;;;;;1.60;1.50;;;25.70;99.90;;;;;;5052983;28;20291;-76
2023/08/10 09:28:56;;;;;;;1.80;1.70;;;25.70;99.90;;;;;;5051227;28;20298;-75
2023/08/10 09:31:25;;;;;;;2.78;1.55;;;25.70;99.90;;;;;;5055895;28;20292;-76
2023/08/10 09:33:56;;;;;;;1.67;1.55;;;25.80;99.90;;;;;;5056768;28;20357;-76
2023/08/10 09:36:24;;;;;;;1.65;1.55;;;25.90;99.90;;;;;;5053783;28;20309;-75
2023/08/10 09:38:52;;;;;;;1.80;1.70;;;25.90;99.90;;;;;;5050494;28;20573;-77
2023/08/10 09:41:20;;;;;;;1.50;1.40;;;25.80;99.90;;;;;;5054455;28;20259;-77
2023/08/10 09:43:48;;;;;;;2.10;1.73;;;25.70;99.90;;;;;;5053845;28;20264;-76
2023/08/10 09:46:17;;;;;;;1.63;1.50;;;25.80;99.90;;;;;;5055084;28;20195;-76
2023/08/10 09:48:47;;;;;;;1.63;1.52;;;26.00;99.90;;;;;;5055673;28;20286;-74
2023/08/10 09:51:14;;;;;;;1.63;1.52;;;26.20;99.90;;;;;;5082199;28;20194;-76
2023/08/10 09:53:42;;;;;;;1.60;1.50;;;26.40;99.90;;;;;;5059632;28;20279;-75
2023/08/10 09:56:09;;;;;;;1.50;1.40;;;26.50;99.90;;;;;;5054209;28;20692;-75
2023/08/10 09:58:37;;;;;;;1.80;1.70;;;26.70;99.90;;;;;;5058529;28;20246;-75
2023/08/10 10:01:05;;;;;;;1.60;1.45;;;26.90;99.90;;;;;;5051580;28;20723;-74
2023/08/10 10:03:33;;;;;;;1.92;1.70;;;27.00;99.90;;;;;;5054318;28;20214;-76
2023/08/10 10:06:01;;;;;;;2.90;1.40;;;26.90;99.90;;;;;;5054884;28;20297;-75
2023/08/10 10:08:29;;;;;;;1.77;1.67;;;27.00;99.90;;;;;;5057621;28;20210;-75
2023/08/10 10:10:59;;;;;;;1.70;1.60;;;27.00;99.90;;;;;;5053070;28;20207;-75
2023/08/10 10:13:26;;;;;;;1.50;1.40;;;27.00;99.90;;;;;;5052283;28;20700;-75
2023/08/10 10:15:55;;;;;;;1.65;1.55;;;27.10;99.90;;;;;;5056751;28;20278;-74
2023/08/10 10:18:23;;;;;;;1.90;1.60;;;27.30;99.90;;;;;;5055762;28;20248;-74
2023/08/10 10:20:52;;;;;;;2.22;1.73;;;27.10;99.90;;;;;;5055901;28;20513;-77
2023/08/10 10:23:20;;;;;;;3.05;1.70;;;27.50;99.90;;;;;;5059163;28;20838;-74
2023/08/10 10:25:58;;;;;;;1.60;1.50;;;27.80;99.90;;;;;;5058138;28;20834;-75
2023/08/10 10:28:26;;;;;;;2.15;1.60;;;27.90;99.90;;;;;;5055088;28;20289;-75
2023/08/10 10:30:57;;;;;;;1.88;1.77;;;27.50;99.90;;;;;;5055284;28;20210;-76
2023/08/10 10:33:25;;;;;;;1.70;1.60;;;27.70;99.90;;;;;;5052212;28;20206;-74
2023/08/10 10:36:12;;;;;;;1.65;1.55;;;28.00;99.90;;;;;;5055428;28;20974;-74
2023/08/10 10:38:40;;;;;;;1.85;1.75;;;28.10;99.90;;;;;;5055816;28;20255;-74
2023/08/10 10:41:14;;;;;;;2.22;1.80;;;28.40;99.90;;;;;;5054727;28;20799;-75
2023/08/10 10:43:41;;;;;;;1.90;1.80;;;28.60;99.90;;;;;;5051473;28;21226;-76
2023/08/10 10:46:08;;;;;;;1.50;1.40;;;28.90;99.90;;;;;;5054052;28;20269;-76
2023/08/10 10:48:36;;;;;;;1.90;1.80;;;29.20;99.90;;;;;;5056872;28;20592;-77
2023/08/10 10:51:05;;;;;;;2.20;2.00;;;29.10;99.90;;;;;;5056940;28;20293;-78
2023/08/10 10:53:34;;;;;;;1.70;1.60;;;28.80;99.90;;;;;;5055891;28;20335;-77
2023/08/10 10:56:02;;;;;;;3.08;1.80;;;28.70;99.90;;;;;;5057736;28;20198;-76
2023/08/10 10:58:31;;;;;;;2.42;1.70;;;28.80;99.90;;;;;;5056594;28;20242;-76
2023/08/10 11:00:58;;;;;;;2.35;1.80;;;28.80;99.90;;;;;;5050264;28;20202;-76
2023/08/10 11:03:29;;;;;;;1.67;1.58;;;28.50;99.90;;;;;;5053038;28;20252;-76
2023/08/10 11:05:56;;;;;;;3.70;1.95;;;28.60;99.90;;;;;;5046200;28;20214;-74
2023/08/10 11:08:25;;;;;;;1.92;1.70;;;28.80;99.90;;;;;;5049339;28;20220;-76
2023/08/10 11:10:52;;;;;;;1.60;1.50;;;28.90;99.90;;;;;;5048515;28;21036;-74
2023/08/10 11:13:21;;;;;;;1.70;1.60;;;29.10;99.90;;;;;;5054056;28;20209;-74
2023/08/10 11:15:49;;;;;;;1.90;1.80;;;29.10;99.90;;;;;;5051928;28;20195;-71
2023/08/10 11:18:16;;;;;;;1.75;1.65;;;29.30;99.90;;;;;;5051123;28;20213;-72
2023/08/10 11:20:44;;;;;;;1.83;1.73;;;29.30;99.90;;;;;;5052839;28;20209;-72
2023/08/10 11:23:11;;;;;;;1.70;1.60;;;29.10;99.90;;;;;;5056347;28;20300;-71
2023/08/10 11:25:48;;;;;;;2.08;1.67;;;29.00;99.90;;;;;;5054604;28;20202;-72
2023/08/10 11:28:16;;;;;;;2.10;1.63;;;28.90;99.90;;;;;;5055756;28;20197;-75
2023/08/10 11:30:44;;;;;;;1.60;1.50;;;28.90;99.90;;;;;;5055159;28;20198;-74
2023/08/10 11:33:11;;;;;;;1.95;1.80;;;29.10;99.90;;;;;;5049859;28;20324;-71
2023/08/10 11:35:38;;;;;;;1.52;1.42;;;29.20;99.90;;;;;;5047547;28;20206;-72
2023/08/10 11:38:06;;;;;;;1.90;1.75;;;29.10;99.90;;;;;;5050584;28;20210;-72
2023/08/10 11:40:33;;;;;;;2.05;1.95;;;29.00;99.90;;;;;;5055189;28;20708;-73
2023/08/10 11:43:11;;;;;;;1.90;1.70;;;29.20;99.90;;;;;;5055353;28;20293;-70
2023/08/10 11:45:39;;;;;;;2.97;1.70;;;29.30;99.90;;;;;;5055101;28;20209;-71
2023/08/10 11:48:09;;;;;;;1.88;1.60;;;29.50;99.90;;;;;;5054440;28;20199;-73
2023/08/10 11:50:38;;;;;;;1.60;1.50;;;29.90;99.90;;;;;;5055994;28;20313;-73
2023/08/10 11:53:11;;;;;;;1.83;1.52;;;30.00;99.90;;;;;;5052828;28;20203;-74
2023/08/10 11:55:43;;;;;;;1.92;1.77;;;30.10;99.90;;;;;;5054858;28;20964;-73
2023/08/10 11:58:13;;;;;;;1.63;1.50;;;30.10;99.90;;;;;;5055081;28;20343;-73
2023/08/10 12:00:41;;;;;;;2.20;1.55;;;30.20;99.90;;;;;;5049643;28;20190;-74
2023/08/10 12:03:11;;;;;;;2.53;1.52;;;30.40;99.90;;;;;;5052162;28;20206;-72
2023/08/10 12:05:44;;;;;;;1.77;1.50;;;30.30;99.90;;;;;;5053576;28;20212;-72
2023/08/10 12:08:13;;;;;;;1.80;1.70;;;30.30;99.90;;;;;;5057337;28;20621;-73
2023/08/10 12:10:42;;;;;;;1.67;1.58;;;30.10;99.90;;;;;;5056219;28;20244;-72
2023/08/10 12:13:14;;;;;;;1.85;1.75;;;30.00;99.90;;;;;;5054704;28;20297;-72
2023/08/10 12:15:46;;;;;;;1.50;1.40;;;29.80;99.90;;;;;;5051888;28;20230;-72
2023/08/10 12:18:14;;;;;;;4.53;1.75;;;29.70;99.90;;;;;;5055742;28;20222;-72
2023/08/10 12:20:41;;;;;;;1.45;1.35;;;29.70;99.90;;;;;;5052880;28;20201;-72
2023/08/10 12:23:09;;;;;;;1.65;1.55;;;29.80;99.90;;;;;;5056378;28;20202;-73
2023/08/10 12:25:36;;;;;;;3.15;2.00;;;30.10;99.90;;;;;;5057317;28;20924;-73
2023/08/10 12:28:03;;;;;;;1.83;1.73;;;30.20;99.90;;;;;;5052856;28;20281;-72
2023/08/10 12:30:31;;;;;;;3.03;1.70;;;30.20;99.90;;;;;;5052397;28;20638;-71
2023/08/10 12:32:58;;;;;;;2.08;1.85;;;30.40;99.90;;;;;;5053253;28;20210;-72
2023/08/10 12:35:26;;;;;;;2.25;1.70;;;30.40;99.90;;;;;;5054188;28;20215;-72
2023/08/10 12:37:53;;;;;;;1.85;1.70;;;30.40;99.90;;;;;;5056002;28;20215;-72
2023/08/10 12:40:21;;;;;;;1.70;1.60;;;30.40;99.90;;;;;;5054706;28;20865;-73
2023/08/10 12:42:48;;;;;;;1.70;1.60;;;30.20;99.90;;;;;;5055835;28;20232;-73
2023/08/10 12:45:17;;;;;;;1.65;1.55;;;30.10;99.90;;;;;;5053035;28;20245;-73
2023/08/10 12:47:46;;;;;;;2.25;1.45;;;30.10;99.90;;;;;;5056533;28;20206;-74
2023/08/10 12:50:14;;;;;;;2.00;1.80;;;30.00;99.90;;;;;;5057310;28;20285;-72
2023/08/10 12:52:42;;;;;;;1.83;1.50;;;30.00;99.90;;;;;;5056052;28;20227;-72